sensor_id;sensor_type;location;lat;lon;timestamp;pressure;altitude;pressure_sealevel;temperature;humidity
60725;BME280;59881;36.722;-4.462;2023-05-10T00:02:12;100801.34;;;23.30;43.79
60725;BME280;59881;36.722;-4.462;2023-05-10T00:04:38;100801.06;;;23.25;43.65
60725;BME280;59881;36.722;-4.462;2023-05-10T00:07:03;100739.75;;;22.82;43.83
60725;BME280;59881;36.722;-4.462;2023-05-10T00:09:29;100664.03;;;22.26;43.92
60725;BME280;59881;36.722;-4.462;2023-05-10T00:11:54;100762.66;;;22.93;43.48
60725;BME280;59881;36.722;-4.462;2023-05-10T00:14:20;100516.56;;;21.40;43.92
60725;BME280;59881;36.722;-4.462;2023-05-10T00:16:45;100743.97;;;22.85;44.29
60725;BME280;59881;36.722;-4.462;2023-05-10T00:19:11;100769.31;;;23.05;44.05
60725;BME280;59881;36.722;-4.462;2023-05-10T00:21:36;100292.88;;;20.13;43.79
60725;BME280;59881;36.722;-4.462;2023-05-10T00:24:02;100618.81;;;22.15;43.17
60725;BME280;59881;36.722;-4.462;2023-05-10T00:26:28;100772.78;;;23.14;42.76
60725;BME280;59881;36.722;-4.462;2023-05-10T00:28:53;100728.78;;;22.92;42.12
60725;BME280;59881;36.722;-4.462;2023-05-10T00:31:19;100721.72;;;22.91;41.93
60725;BME280;59881;36.722;-4.462;2023-05-10T00:33:44;100634.34;;;22.27;42.61
60725;BME280;59881;36.722;-4.462;2023-05-10T00:36:10;100765.06;;;23.11;43.27
60725;BME280;59881;36.722;-4.462;2023-05-10T00:38:35;100753.06;;;22.99;43.32
60725;BME280;59881;36.722;-4.462;2023-05-10T00:41:01;100763.16;;;22.97;43.30
60725;BME280;59881;36.722;-4.462;2023-05-10T00:43:27;100668.03;;;22.30;43.41
60725;BME280;59881;36.722;-4.462;2023-05-10T00:45:52;100705.44;;;22.55;43.36
60725;BME280;59881;36.722;-4.462;2023-05-10T00:48:18;100658.69;;;22.18;43.86
60725;BME280;59881;36.722;-4.462;2023-05-10T00:50:44;100718.38;;;22.51;44.08
60725;BME280;59881;36.722;-4.462;2023-05-10T00:53:10;100771.88;;;22.76;43.80
60725;BME280;59881;36.722;-4.462;2023-05-10T00:55:36;100615.53;;;21.81;44.53
60725;BME280;59881;36.722;-4.462;2023-05-10T00:58:01;100595.03;;;21.65;43.32
60725;BME280;59881;36.722;-4.462;2023-05-10T01:00:27;100770.88;;;22.77;42.73
60725;BME280;59881;36.722;-4.462;2023-05-10T01:02:53;100763.34;;;22.72;43.01
60725;BME280;59881;36.722;-4.462;2023-05-10T01:05:19;100659.81;;;22.00;42.84
60725;BME280;59881;36.722;-4.462;2023-05-10T01:07:44;100669.72;;;22.00;42.79
60725;BME280;59881;36.722;-4.462;2023-05-10T01:10:10;100696.78;;;22.13;42.79
60725;BME280;59881;36.722;-4.462;2023-05-10T01:12:39;100751.34;;;22.60;43.13
60725;BME280;59881;36.722;-4.462;2023-05-10T01:15:06;100738.41;;;22.63;42.43
60725;BME280;59881;36.722;-4.462;2023-05-10T01:17:34;100657.03;;;22.17;41.99
60725;BME280;59881;36.722;-4.462;2023-05-10T01:20:01;100737.88;;;22.68;42.06
60725;BME280;59881;36.722;-4.462;2023-05-10T01:33:18;100740.66;;;22.51;42.75
60725;BME280;59881;36.722;-4.462;2023-05-10T01:35:52;100589.19;;;21.62;42.74
60725;BME280;59881;36.722;-4.462;2023-05-10T01:41:18;100731.88;;;22.43;43.10
60725;BME280;59881;36.722;-4.462;2023-05-10T01:43:53;100589.22;;;21.54;43.27
60725;BME280;59881;36.722;-4.462;2023-05-10T01:46:41;100718.13;;;22.38;42.75
60725;BME280;59881;36.722;-4.462;2023-05-10T01:49:16;100682.03;;;22.17;42.92
60725;BME280;59881;36.722;-4.462;2023-05-10T01:51:47;100701.91;;;22.31;42.91
60725;BME280;59881;36.722;-4.462;2023-05-10T01:54:16;100701.91;;;22.31;43.34
60725;BME280;59881;36.722;-4.462;2023-05-10T01:56:43;100543.66;;;21.14;43.57
60725;BME280;59881;36.722;-4.462;2023-05-10T01:59:17;100612.28;;;21.63;43.84
60725;BME280;59881;36.722;-4.462;2023-05-10T02:01:45;100699.31;;;22.15;43.57
60725;BME280;59881;36.722;-4.462;2023-05-10T02:04:13;100698.34;;;22.07;43.84
60725;BME280;59881;36.722;-4.462;2023-05-10T02:06:42;100589.59;;;21.34;43.69
60725;BME280;59881;36.722;-4.462;2023-05-10T02:09:10;100604.63;;;21.52;43.39
60725;BME280;59881;36.722;-4.462;2023-05-10T02:11:38;100689.66;;;22.05;43.35
60725;BME280;59881;36.722;-4.462;2023-05-10T02:14:06;100594.63;;;21.45;43.35
60725;BME280;59881;36.722;-4.462;2023-05-10T02:16:35;100693.69;;;22.01;43.39
60725;BME280;59881;36.722;-4.462;2023-05-10T02:19:02;100673.69;;;21.81;43.63
60725;BME280;59881;36.722;-4.462;2023-05-10T02:21:28;100686.56;;;21.85;43.92
60725;BME280;59881;36.722;-4.462;2023-05-10T02:23:57;100529.56;;;20.89;43.68
60725;BME280;59881;36.722;-4.462;2023-05-10T02:26:24;100679.66;;;21.91;43.37
60725;BME280;59881;36.722;-4.462;2023-05-10T02:28:51;100673.97;;;21.94;43.21
60725;BME280;59881;36.722;-4.462;2023-05-10T02:31:18;100581.63;;;21.26;43.24
60725;BME280;59881;36.722;-4.462;2023-05-10T02:33:46;100675.50;;;21.88;43.69
60725;BME280;59881;36.722;-4.462;2023-05-10T02:36:13;100534.84;;;21.05;43.11
60725;BME280;59881;36.722;-4.462;2023-05-10T02:38:39;100671.91;;;21.96;42.45
60725;BME280;59881;36.722;-4.462;2023-05-10T02:41:07;100667.03;;;22.00;42.30
60725;BME280;59881;36.722;-4.462;2023-05-10T02:43:35;100611.53;;;21.77;42.10
60725;BME280;59881;36.722;-4.462;2023-05-10T02:46:01;100659.66;;;22.02;42.00
60725;BME280;59881;36.722;-4.462;2023-05-10T02:48:27;100666.78;;;22.09;41.88
60725;BME280;59881;36.722;-4.462;2023-05-10T02:50:55;100605.16;;;21.78;41.73
60725;BME280;59881;36.722;-4.462;2023-05-10T02:53:24;100662.75;;;22.14;41.63
60725;BME280;59881;36.722;-4.462;2023-05-10T02:55:52;100659.06;;;22.15;41.73
60725;BME280;59881;36.722;-4.462;2023-05-10T02:58:21;100538.69;;;21.42;41.55
60725;BME280;59881;36.722;-4.462;2023-05-10T03:00:47;100658.75;;;22.09;41.75
60725;BME280;59881;36.722;-4.462;2023-05-10T03:03:12;100562.13;;;21.40;41.77
60725;BME280;59881;36.722;-4.462;2023-05-10T03:05:38;100680.41;;;22.08;41.86
60725;BME280;59881;36.722;-4.462;2023-05-10T03:08:03;100527.41;;;21.16;41.87
60725;BME280;59881;36.722;-4.462;2023-05-10T03:10:30;100550.16;;;21.28;41.76
60725;BME280;59881;36.722;-4.462;2023-05-10T03:15:51;100681.16;;;21.94;42.21
60725;BME280;59881;36.722;-4.462;2023-05-10T03:18:23;100607.19;;;21.45;41.95
60725;BME280;59881;36.722;-4.462;2023-05-10T03:20:57;100418.81;;;20.34;41.72
60725;BME280;59881;36.722;-4.462;2023-05-10T03:23:30;100673.44;;;21.99;41.76
60725;BME280;59881;36.722;-4.462;2023-05-10T03:25:59;100671.56;;;21.99;41.69
60725;BME280;59881;36.722;-4.462;2023-05-10T03:28:25;100529.53;;;20.97;41.88
60725;BME280;59881;36.722;-4.462;2023-05-10T03:30:53;100698.25;;;21.93;41.99
60725;BME280;59881;36.722;-4.462;2023-05-10T03:33:19;100582.72;;;21.08;42.50
60725;BME280;59881;36.722;-4.462;2023-05-10T03:35:46;100581.75;;;20.93;42.91
60725;BME280;59881;36.722;-4.462;2023-05-10T03:38:12;100709.28;;;21.66;42.46
60725;BME280;59881;36.722;-4.462;2023-05-10T03:40:38;100685.97;;;21.67;42.44
60725;BME280;59881;36.722;-4.462;2023-05-10T03:43:04;100643.19;;;21.34;42.49
60725;BME280;59881;36.722;-4.462;2023-05-10T03:45:29;100696.53;;;21.68;42.42
60725;BME280;59881;36.722;-4.462;2023-05-10T03:47:57;100628.66;;;21.28;42.28
60725;BME280;59881;36.722;-4.462;2023-05-10T03:50:22;100505.72;;;20.55;42.27
60725;BME280;59881;36.722;-4.462;2023-05-10T03:52:48;100529.63;;;20.64;42.12
60725;BME280;59881;36.722;-4.462;2023-05-10T03:55:13;100571.75;;;20.79;42.19
60725;BME280;59881;36.722;-4.462;2023-05-10T03:57:39;100696.47;;;21.37;42.57
60725;BME280;59881;36.722;-4.462;2023-05-10T04:00:05;100700.31;;;21.43;42.26
60725;BME280;59881;36.722;-4.462;2023-05-10T04:02:30;100522.34;;;20.17;42.29
60725;BME280;59881;36.722;-4.462;2023-05-10T04:04:56;100488.72;;;19.65;42.66
60725;BME280;59881;36.722;-4.462;2023-05-10T04:07:21;100834.81;;;21.55;43.36
60725;BME280;59881;36.722;-4.462;2023-05-10T04:09:47;100690.72;;;20.76;50.79
60725;BME280;59881;36.722;-4.462;2023-05-10T04:12:13;100883.66;;;21.89;58.47
60725;BME280;59881;36.722;-4.462;2023-05-10T04:14:38;100778.41;;;21.07;62.61
60725;BME280;59881;36.722;-4.462;2023-05-10T04:17:04;100776.22;;;20.78;65.39
60725;BME280;59881;36.722;-4.462;2023-05-10T04:19:30;100897.28;;;21.31;67.65
60725;BME280;59881;36.722;-4.462;2023-05-10T04:21:56;100780.53;;;20.46;69.86
60725;BME280;59881;36.722;-4.462;2023-05-10T04:24:21;100831.94;;;20.66;71.24
60725;BME280;59881;36.722;-4.462;2023-05-10T04:26:47;100917.69;;;20.99;72.07
60725;BME280;59881;36.722;-4.462;2023-05-10T04:29:12;100942.94;;;20.96;72.62
60725;BME280;59881;36.722;-4.462;2023-05-10T04:31:38;100921.00;;;20.93;72.70
60725;BME280;59881;36.722;-4.462;2023-05-10T04:34:03;100756.81;;;20.00;72.56
60725;BME280;59881;36.722;-4.462;2023-05-10T04:36:29;100782.28;;;20.13;72.40
60725;BME280;59881;36.722;-4.462;2023-05-10T04:38:54;100837.06;;;20.09;72.39
60725;BME280;59881;36.722;-4.462;2023-05-10T04:41:20;100836.03;;;20.44;72.33
60725;BME280;59881;36.722;-4.462;2023-05-10T04:43:46;100860.66;;;20.56;71.73
60725;BME280;59881;36.722;-4.462;2023-05-10T04:46:11;100906.22;;;20.64;72.06
60725;BME280;59881;36.722;-4.462;2023-05-10T04:48:37;100919.31;;;20.83;71.85
60725;BME280;59881;36.722;-4.462;2023-05-10T04:51:02;100859.09;;;20.45;71.47
60725;BME280;59881;36.722;-4.462;2023-05-10T04:53:29;100671.78;;;19.27;71.24
60725;BME280;59881;36.722;-4.462;2023-05-10T04:55:55;101000.03;;;20.97;71.52
60725;BME280;59881;36.722;-4.462;2023-05-10T04:58:20;100705.56;;;19.36;71.80
60725;BME280;59881;36.722;-4.462;2023-05-10T05:00:46;100951.94;;;20.87;72.50
60725;BME280;59881;36.722;-4.462;2023-05-10T05:03:11;100837.72;;;20.02;73.21
60725;BME280;59881;36.722;-4.462;2023-05-10T05:05:37;100969.00;;;20.78;73.54
60725;BME280;59881;36.722;-4.462;2023-05-10T05:08:03;100915.72;;;20.24;73.72
60725;BME280;59881;36.722;-4.462;2023-05-10T05:10:28;100998.56;;;20.68;74.39
60725;BME280;59881;36.722;-4.462;2023-05-10T05:12:55;100994.34;;;20.65;74.57
60725;BME280;59881;36.722;-4.462;2023-05-10T05:15:20;100963.66;;;20.43;75.25
60725;BME280;59881;36.722;-4.462;2023-05-10T05:17:46;100916.78;;;20.05;75.54
60725;BME280;59881;36.722;-4.462;2023-05-10T05:20:12;100857.31;;;19.59;76.05
60725;BME280;59881;36.722;-4.462;2023-05-10T05:22:38;101022.25;;;20.55;76.28
60725;BME280;59881;36.722;-4.462;2023-05-10T05:25:04;100931.41;;;19.93;76.22
60725;BME280;59881;36.722;-4.462;2023-05-10T05:27:30;101027.88;;;20.52;76.70
60725;BME280;59881;36.722;-4.462;2023-05-10T05:29:56;101042.97;;;20.53;76.89
60725;BME280;59881;36.722;-4.462;2023-05-10T05:32:23;101039.84;;;20.57;76.91
60725;BME280;59881;36.722;-4.462;2023-05-10T05:34:48;101039.03;;;20.65;76.56
60725;BME280;59881;36.722;-4.462;2023-05-10T05:37:15;100941.69;;;20.05;75.88
60725;BME280;59881;36.722;-4.462;2023-05-10T05:39:41;101049.06;;;20.97;75.62
60725;BME280;59881;36.722;-4.462;2023-05-10T05:42:08;100999.56;;;21.18;73.73
60725;BME280;59881;36.722;-4.462;2023-05-10T05:44:33;100812.75;;;20.28;71.86
60725;BME280;59881;36.722;-4.462;2023-05-10T05:46:59;100928.72;;;21.04;71.49
60725;BME280;59881;36.722;-4.462;2023-05-10T05:49:24;100879.69;;;21.03;70.99
60725;BME280;59881;36.722;-4.462;2023-05-10T05:51:50;101024.47;;;22.26;69.02
60725;BME280;59881;36.722;-4.462;2023-05-10T05:54:16;101027.53;;;22.71;68.54
60725;BME280;59881;36.722;-4.462;2023-05-10T05:56:41;101048.75;;;23.37;66.17
60725;BME280;59881;36.722;-4.462;2023-05-10T05:59:07;101033.59;;;23.90;64.22
60725;BME280;59881;36.722;-4.462;2023-05-10T06:01:33;101036.47;;;24.41;61.42
60725;BME280;59881;36.722;-4.462;2023-05-10T06:03:59;101011.03;;;24.44;59.82
60725;BME280;59881;36.722;-4.462;2023-05-10T06:06:25;101017.53;;;24.94;59.16
60725;BME280;59881;36.722;-4.462;2023-05-10T06:08:50;100890.56;;;24.82;58.05
60725;BME280;59881;36.722;-4.462;2023-05-10T06:11:16;101038.06;;;26.46;55.83
60725;BME280;59881;36.722;-4.462;2023-05-10T06:13:42;101041.75;;;26.59;53.77
60725;BME280;59881;36.722;-4.462;2023-05-10T06:16:08;100906.66;;;25.90;53.01
60725;BME280;59881;36.722;-4.462;2023-05-10T06:18:34;100850.94;;;25.47;52.56
60725;BME280;59881;36.722;-4.462;2023-05-10T06:21:00;101013.53;;;26.40;52.65
60725;BME280;59881;36.722;-4.462;2023-05-10T06:23:25;101054.38;;;26.94;51.65
60725;BME280;59881;36.722;-4.462;2023-05-10T06:25:51;100994.28;;;26.15;52.16
60725;BME280;59881;36.722;-4.462;2023-05-10T06:28:17;100870.97;;;25.16;52.96
60725;BME280;59881;36.722;-4.462;2023-05-10T06:30:43;100836.81;;;25.73;52.33
60725;BME280;59881;36.722;-4.462;2023-05-10T06:33:08;100919.31;;;26.59;50.37
60725;BME280;59881;36.722;-4.462;2023-05-10T06:35:34;100896.94;;;26.85;49.55
60725;BME280;59881;36.722;-4.462;2023-05-10T06:37:59;100651.97;;;25.91;48.90
60725;BME280;59881;36.722;-4.462;2023-05-10T06:40:25;100932.81;;;27.80;47.81
60725;BME280;59881;36.722;-4.462;2023-05-10T06:42:50;101041.94;;;28.41;47.50
60725;BME280;59881;36.722;-4.462;2023-05-10T06:45:16;100981.16;;;27.70;47.53
60725;BME280;59881;36.722;-4.462;2023-05-10T06:47:42;101053.22;;;27.98;48.08
60725;BME280;59881;36.722;-4.462;2023-05-10T06:50:09;101049.88;;;28.22;47.69
60725;BME280;59881;36.722;-4.462;2023-05-10T06:52:35;100971.97;;;27.78;47.31
60725;BME280;59881;36.722;-4.462;2023-05-10T06:55:01;100959.69;;;27.75;47.30
60725;BME280;59881;36.722;-4.462;2023-05-10T06:57:26;100997.41;;;27.97;46.67
60725;BME280;59881;36.722;-4.462;2023-05-10T06:59:52;101034.25;;;28.18;47.24
60725;BME280;59881;36.722;-4.462;2023-05-10T07:02:18;101067.34;;;28.46;46.65
60725;BME280;59881;36.722;-4.462;2023-05-10T07:04:43;100824.84;;;27.12;46.66
60725;BME280;59881;36.722;-4.462;2023-05-10T07:07:09;100930.97;;;28.01;45.82
60725;BME280;59881;36.722;-4.462;2023-05-10T07:09:34;101055.97;;;29.09;45.13
60725;BME280;59881;36.722;-4.462;2023-05-10T07:12:00;100820.00;;;27.88;44.81
60725;BME280;59881;36.722;-4.462;2023-05-10T07:14:27;100828.13;;;28.33;43.43
60725;BME280;59881;36.722;-4.462;2023-05-10T07:16:52;101061.56;;;29.85;43.44
60725;BME280;59881;36.722;-4.462;2023-05-10T07:19:18;101053.88;;;30.07;43.01
60725;BME280;59881;36.722;-4.462;2023-05-10T07:21:43;101060.75;;;30.53;41.84
60725;BME280;59881;36.722;-4.462;2023-05-10T07:24:09;101060.00;;;31.01;41.02
60725;BME280;59881;36.722;-4.462;2023-05-10T07:26:34;101034.78;;;31.43;40.08
60725;BME280;59881;36.722;-4.462;2023-05-10T07:29:00;101066.44;;;31.98;38.47
60725;BME280;59881;36.722;-4.462;2023-05-10T07:31:26;101062.22;;;31.83;38.75
60725;BME280;59881;36.722;-4.462;2023-05-10T07:33:51;100941.63;;;30.31;39.08
60725;BME280;59881;36.722;-4.462;2023-05-10T07:36:17;101064.38;;;30.47;40.95
60725;BME280;59881;36.722;-4.462;2023-05-10T07:38:42;101079.38;;;30.93;40.59
60725;BME280;59881;36.722;-4.462;2023-05-10T07:41:09;101072.47;;;32.00;38.46
60725;BME280;59881;36.722;-4.462;2023-05-10T07:43:35;101073.53;;;32.69;37.15
60725;BME280;59881;36.722;-4.462;2023-05-10T07:46:00;101004.88;;;32.72;36.13
60725;BME280;59881;36.722;-4.462;2023-05-10T07:48:26;101050.53;;;33.17;35.73
60725;BME280;59881;36.722;-4.462;2023-05-10T07:50:51;100962.69;;;32.51;35.75
60725;BME280;59881;36.722;-4.462;2023-05-10T07:53:17;101019.28;;;32.85;35.68
60725;BME280;59881;36.722;-4.462;2023-05-10T07:55:44;101104.91;;;33.36;35.17
60725;BME280;59881;36.722;-4.462;2023-05-10T07:58:10;100950.13;;;32.50;35.36
60725;BME280;59881;36.722;-4.462;2023-05-10T08:00:35;100940.03;;;33.71;33.60
60725;BME280;59881;36.722;-4.462;2023-05-10T08:03:04;101084.03;;;35.21;32.18
60725;BME280;59881;36.722;-4.462;2023-05-10T08:05:29;100857.09;;;33.77;31.87
60725;BME280;59881;36.722;-4.462;2023-05-10T08:07:55;101114.94;;;35.43;31.97
60725;BME280;59881;36.722;-4.462;2023-05-10T08:10:20;101035.63;;;36.29;30.55
60725;BME280;59881;36.722;-4.462;2023-05-10T08:12:46;101069.88;;;36.69;29.22
60725;BME280;59881;36.722;-4.462;2023-05-10T08:15:11;100992.03;;;35.52;29.80
60725;BME280;59881;36.722;-4.462;2023-05-10T08:17:37;101113.00;;;36.31;29.47
60725;BME280;59881;36.722;-4.462;2023-05-10T08:20:02;101110.22;;;36.68;28.92
60725;BME280;59881;36.722;-4.462;2023-05-10T08:22:28;101080.94;;;36.36;28.72
60725;BME280;59881;36.722;-4.462;2023-05-10T08:24:54;100970.84;;;36.12;28.12
60725;BME280;59881;36.722;-4.462;2023-05-10T08:27:19;100931.44;;;36.34;27.68
60725;BME280;59881;36.722;-4.462;2023-05-10T08:29:45;101100.13;;;37.57;27.11
60725;BME280;59881;36.722;-4.462;2023-05-10T08:32:10;101102.00;;;37.31;27.41
60725;BME280;59881;36.722;-4.462;2023-05-10T08:34:35;101012.72;;;36.02;27.57
60725;BME280;59881;36.722;-4.462;2023-05-10T08:37:01;101131.31;;;35.93;27.88
60725;BME280;59881;36.722;-4.462;2023-05-10T08:39:26;101031.84;;;35.11;28.84
60725;BME280;59881;36.722;-4.462;2023-05-10T08:41:54;101099.06;;;35.18;29.29
60725;BME280;59881;36.722;-4.462;2023-05-10T08:44:24;101096.91;;;35.20;29.12
60725;BME280;59881;36.722;-4.462;2023-05-10T08:46:53;100941.75;;;34.33;29.07
60725;BME280;59881;36.722;-4.462;2023-05-10T08:49:19;101097.84;;;35.85;28.56
60725;BME280;59881;36.722;-4.462;2023-05-10T08:51:51;101006.19;;;35.44;28.09
60725;BME280;59881;36.722;-4.462;2023-05-10T08:54:17;101108.41;;;35.72;28.06
60725;BME280;59881;36.722;-4.462;2023-05-10T08:56:43;100949.69;;;34.56;28.26
60725;BME280;59881;36.722;-4.462;2023-05-10T08:59:09;101100.31;;;35.87;28.22
60725;BME280;59881;36.722;-4.462;2023-05-10T09:01:35;101093.00;;;35.66;27.97
60725;BME280;59881;36.722;-4.462;2023-05-10T09:04:01;101100.75;;;35.24;28.00
60725;BME280;59881;36.722;-4.462;2023-05-10T09:06:28;101066.50;;;35.22;28.66
60725;BME280;59881;36.722;-4.462;2023-05-10T09:08:54;101059.31;;;35.70;27.59
60725;BME280;59881;36.722;-4.462;2023-05-10T09:11:20;101091.56;;;36.22;27.51
60725;BME280;59881;36.722;-4.462;2023-05-10T09:13:48;101008.03;;;36.03;27.07
60725;BME280;59881;36.722;-4.462;2023-05-10T09:16:14;101086.91;;;36.71;27.01
60725;BME280;59881;36.722;-4.462;2023-05-10T09:18:39;101055.72;;;36.97;26.32
60725;BME280;59881;36.722;-4.462;2023-05-10T09:21:05;101086.06;;;37.33;26.29
60725;BME280;59881;36.722;-4.462;2023-05-10T09:23:30;101090.22;;;37.56;26.05
60725;BME280;59881;36.722;-4.462;2023-05-10T09:26:04;101089.16;;;38.24;25.06
60725;BME280;59881;36.722;-4.462;2023-05-10T09:28:57;100977.00;;;37.69;24.75
60725;BME280;59881;36.722;-4.462;2023-05-10T09:31:23;101110.59;;;38.12;25.02
60725;BME280;59881;36.722;-4.462;2023-05-10T09:33:51;101114.44;;;38.00;25.22
60725;BME280;59881;36.722;-4.462;2023-05-10T09:36:16;101052.81;;;37.24;25.68
60725;BME280;59881;36.722;-4.462;2023-05-10T09:38:50;101088.59;;;37.60;25.59
60725;BME280;59881;36.722;-4.462;2023-05-10T09:41:20;101058.63;;;37.64;25.13
60725;BME280;59881;36.722;-4.462;2023-05-10T09:43:46;100999.81;;;37.60;24.98
60725;BME280;59881;36.722;-4.462;2023-05-10T09:46:12;101123.22;;;38.38;24.86
60725;BME280;59881;36.722;-4.462;2023-05-10T09:48:46;101019.59;;;37.57;24.86
60725;BME280;59881;36.722;-4.462;2023-05-10T09:51:22;101051.75;;;37.51;24.87
60725;BME280;59881;36.722;-4.462;2023-05-10T09:53:48;101127.09;;;38.17;24.87
60725;BME280;59881;36.722;-4.462;2023-05-10T09:56:34;101148.28;;;38.21;24.45
60725;BME280;59881;36.722;-4.462;2023-05-10T09:59:04;100962.97;;;37.20;24.83
60725;BME280;59881;36.722;-4.462;2023-05-10T10:01:29;101103.72;;;39.10;24.01
60725;BME280;59881;36.722;-4.462;2023-05-10T10:03:56;101127.09;;;39.67;23.43
60725;BME280;59881;36.722;-4.462;2023-05-10T10:06:23;101132.19;;;39.89;23.10
60725;BME280;59881;36.722;-4.462;2023-05-10T10:08:50;101136.69;;;40.14;22.98
60725;BME280;59881;36.722;-4.462;2023-05-10T10:11:16;101084.91;;;39.67;22.48
60725;BME280;59881;36.722;-4.462;2023-05-10T10:13:41;101137.69;;;39.55;23.05
60725;BME280;59881;36.722;-4.462;2023-05-10T10:16:08;101047.53;;;39.11;23.25
60725;BME280;59881;36.722;-4.462;2023-05-10T10:18:33;101137.03;;;39.68;23.13
60725;BME280;59881;36.722;-4.462;2023-05-10T10:21:07;101109.47;;;39.63;23.04
60725;BME280;59881;36.722;-4.462;2023-05-10T10:23:34;101135.53;;;40.74;21.92
60725;BME280;59881;36.722;-4.462;2023-05-10T10:26:04;101088.09;;;40.43;21.33
60725;BME280;59881;36.722;-4.462;2023-05-10T10:28:42;101069.06;;;39.04;22.67
60725;BME280;59881;36.722;-4.462;2023-05-10T10:31:28;101161.91;;;38.88;23.62
60725;BME280;59881;36.722;-4.462;2023-05-10T10:34:05;101158.72;;;37.94;25.06
60725;BME280;59881;36.722;-4.462;2023-05-10T10:36:33;101131.75;;;36.92;25.70
60725;BME280;59881;36.722;-4.462;2023-05-10T10:39:00;101073.81;;;34.50;28.40
60725;BME280;59881;36.722;-4.462;2023-05-10T10:41:34;101172.50;;;32.23;31.59
60725;BME280;59881;36.722;-4.462;2023-05-10T10:52:39;101188.53;;;26.95;41.58
60725;BME280;59881;36.722;-4.462;2023-05-10T10:55:11;101173.81;;;26.26;43.36
60725;BME280;59881;36.722;-4.462;2023-05-10T11:07:58;101208.44;;;26.01;44.20
60725;BME280;59881;36.722;-4.462;2023-05-10T11:10:24;101076.03;;;25.45;44.25
60725;BME280;59881;36.722;-4.462;2023-05-10T11:13:10;101172.72;;;26.20;43.64
60725;BME280;59881;36.722;-4.462;2023-05-10T11:15:38;101178.47;;;26.11;44.03
60725;BME280;59881;36.722;-4.462;2023-05-10T11:18:23;101166.81;;;25.89;44.34
60725;BME280;59881;36.722;-4.462;2023-05-10T11:20:51;101151.75;;;25.79;44.82
60725;BME280;59881;36.722;-4.462;2023-05-10T11:23:16;101021.22;;;25.08;44.28
60725;BME280;59881;36.722;-4.462;2023-05-10T11:25:44;101172.66;;;25.92;44.41
60725;BME280;59881;36.722;-4.462;2023-05-10T11:28:13;101165.22;;;25.79;44.70
60725;BME280;59881;36.722;-4.462;2023-05-10T23:54:53;100888.81;;;18.66;79.76
60725;BME280;59881;36.722;-4.462;2023-05-10T23:57:19;100914.88;;;18.81;79.89
60725;BME280;59881;36.722;-4.462;2023-05-10T23:59:45;100883.63;;;18.64;80.17
